createdAt,value
2018-02-10T00:00:15.889Z,59.65
2018-02-10T00:01:18.404Z,63.17
2018-02-10T00:02:20.953Z,55.38
2018-02-10T00:03:24.245Z,59.75
2018-02-10T00:04:26.781Z,61.83
2018-02-10T00:05:29.341Z,54.10
2018-02-10T00:06:31.868Z,56.80
2018-02-10T00:07:34.380Z,60.53
2018-02-10T00:08:36.901Z,59.78
2018-02-10T00:09:39.417Z,64.20
2018-02-10T00:10:42.750Z,52.97
2018-02-10T00:11:45.269Z,63.42
2018-02-10T00:12:48.564Z,59.58
2018-02-10T00:13:51.876Z,64.75
2018-02-10T00:14:54.391Z,60.20
2018-02-10T00:15:56.953Z,71.18
2018-02-10T00:16:59.473Z,56.10
2018-02-10T00:18:01.992Z,59.05
2018-02-10T00:19:04.519Z,61.17
2018-02-10T00:20:07.044Z,64.40
2018-02-10T00:21:10.412Z,64.32
2018-02-10T00:22:24.853Z,60.85
2018-02-10T00:23:27.369Z,59.33
2018-02-10T00:24:29.952Z,58.58
2018-02-10T00:25:32.491Z,54.60
2018-02-10T00:26:35.041Z,63.67
2018-02-10T00:27:38.329Z,55.35
2018-02-10T00:28:41.630Z,71.43
2018-02-10T00:29:44.186Z,52.62
2018-02-10T00:30:46.710Z,58.13
2018-02-10T00:31:49.226Z,61.88
2018-02-10T00:32:51.749Z,59.33
2018-02-10T00:33:54.316Z,63.03
2018-02-10T00:34:56.844Z,60.75
2018-02-10T00:35:59.364Z,65.45
2018-02-10T00:37:02.643Z,72.53
2018-02-10T00:38:05.924Z,62.85
2018-02-10T00:39:09.257Z,62.55
2018-02-10T00:40:11.776Z,66.00
2018-02-10T00:41:15.060Z,71.22
2018-02-10T00:42:18.392Z,73.07
2018-02-10T00:43:20.916Z,59.88
2018-02-10T00:44:24.200Z,67.32
2018-02-10T00:45:27.481Z,59.25
2018-02-10T00:46:30.777Z,64.90
2018-02-10T00:47:34.100Z,64.20
2018-02-10T00:48:37.388Z,63.45
2018-02-10T00:49:39.912Z,59.08
2018-02-10T00:50:43.190Z,61.05
2018-02-10T00:51:46.477Z,60.05
2018-02-10T00:52:49.813Z,63.55
2018-02-10T00:53:52.384Z,60.03
2018-02-10T00:54:54.900Z,68.37
2018-02-10T00:55:57.425Z,69.65
2018-02-10T00:56:59.940Z,61.97
2018-02-10T00:58:02.501Z,72.60
2018-02-10T00:59:05.030Z,64.07
2018-02-10T01:00:07.561Z,73.55
2018-02-10T01:01:10.077Z,74.30
2018-02-10T01:02:13.363Z,71.12
2018-02-10T01:03:16.698Z,65.75
2018-02-10T01:04:19.226Z,64.82
2018-02-10T01:05:21.750Z,64.75
2018-02-10T01:06:24.267Z,64.03
2018-02-10T01:07:26.793Z,64.53
2018-02-10T01:08:29.349Z,58.85
2018-02-10T01:09:31.883Z,65.87
2018-02-10T01:10:34.396Z,68.50
2018-02-10T01:11:36.945Z,63.00
2018-02-10T01:12:39.473Z,73.03
2018-02-10T01:13:42.030Z,67.78
2018-02-10T01:14:44.550Z,64.37
2018-02-10T01:15:47.073Z,69.05
2018-02-10T01:16:49.633Z,65.12
2018-02-10T01:17:52.157Z,80.18
2018-02-10T01:18:54.672Z,66.87
2018-02-10T01:19:57.192Z,69.28
2018-02-10T01:20:59.744Z,64.30
2018-02-10T01:22:02.274Z,70.47
2018-02-10T01:23:04.792Z,60.25
2018-02-10T01:24:07.308Z,68.30
2018-02-10T01:25:09.832Z,71.80
2018-02-10T01:26:13.157Z,67.22
2018-02-10T01:27:15.719Z,65.78
2018-02-10T01:28:18.237Z,68.40
2018-02-10T01:29:20.758Z,67.65
2018-02-10T01:30:23.272Z,65.70
2018-02-10T01:31:26.601Z,68.82
2018-02-10T01:32:29.165Z,73.70
2018-02-10T01:33:31.680Z,63.72
2018-02-10T01:34:34.201Z,68.65
2018-02-10T01:35:36.719Z,65.70
2018-02-10T01:36:39.237Z,65.32
2018-02-10T01:37:41.796Z,58.80
2018-02-10T01:38:44.316Z,70.90
2018-02-10T01:39:47.613Z,71.72
2018-02-10T01:40:50.910Z,65.75
2018-02-10T01:41:53.437Z,69.65
2018-02-10T01:42:55.999Z,62.38
2018-02-10T01:43:58.520Z,61.05
2018-02-10T01:45:01.045Z,68.15
2018-02-10T01:46:03.572Z,63.95
2018-02-10T01:47:06.098Z,69.07
2018-02-10T01:48:08.668Z,62.33
2018-02-10T01:49:11.946Z,64.00
2018-02-10T01:50:21.225Z,65.85
2018-02-10T01:51:23.749Z,60.08
2018-02-10T01:52:26.285Z,70.10
2018-02-10T01:53:28.853Z,80.50
2018-02-10T01:54:32.154Z,65.82
2018-02-10T01:55:35.477Z,72.05
2018-02-10T01:56:38.006Z,69.05
2018-02-10T01:57:41.298Z,71.82
2018-02-10T01:58:43.897Z,66.25
2018-02-10T01:59:46.430Z,75.43
2018-02-10T02:00:48.960Z,87.85
2018-02-10T02:01:51.484Z,69.03
2018-02-10T02:02:54.019Z,71.35
2018-02-10T02:03:57.349Z,68.35
2018-02-10T02:04:59.877Z,73.10
2018-02-10T02:06:02.412Z,74.07
2018-02-10T02:07:04.940Z,86.15
2018-02-10T02:08:07.461Z,69.25
2018-02-10T02:09:10.793Z,77.65
2018-02-10T02:10:13.323Z,64.87
2018-02-10T02:11:15.866Z,74.68
2018-02-10T02:12:18.384Z,63.00
2018-02-10T02:13:20.908Z,73.47
2018-02-10T02:14:24.244Z,79.03
2018-02-10T02:15:26.760Z,67.60
2018-02-10T02:16:30.063Z,69.68
2018-02-10T02:17:32.632Z,70.70
2018-02-10T02:18:35.888Z,78.80
2018-02-10T02:19:39.218Z,74.78
2018-02-10T02:20:41.737Z,88.45
2018-02-10T02:21:45.050Z,75.07
2018-02-10T02:22:47.572Z,69.57
2018-02-10T02:23:50.096Z,70.05
2018-02-10T02:24:52.619Z,74.03
2018-02-10T02:25:55.904Z,66.85
2018-02-10T02:26:59.218Z,78.25
2018-02-10T02:28:01.752Z,79.18
2018-02-10T02:29:05.027Z,71.12
2018-02-10T02:30:07.544Z,75.20
2018-02-10T02:31:10.192Z,68.65
2018-02-10T02:32:12.741Z,77.25
2018-02-10T02:33:16.028Z,76.10
2018-02-10T02:34:19.441Z,71.82
2018-02-10T02:35:21.956Z,69.32
2018-02-10T02:36:24.468Z,68.80
2018-02-10T02:37:26.984Z,70.80
2018-02-10T02:38:29.496Z,73.60
2018-02-10T02:39:32.069Z,67.65
2018-02-10T02:40:34.607Z,70.65
2018-02-10T02:41:37.889Z,72.82
2018-02-10T02:42:41.181Z,73.82
2018-02-10T02:43:44.469Z,73.20
2018-02-10T02:44:47.040Z,71.82
2018-02-10T02:45:49.565Z,69.85
2018-02-10T02:46:52.081Z,75.78
2018-02-10T02:47:54.605Z,82.72
2018-02-10T02:48:57.129Z,66.20
2018-02-10T02:49:59.769Z,74.40
2018-02-10T02:51:02.292Z,71.00
2018-02-10T02:52:04.853Z,69.47
2018-02-10T02:53:07.378Z,75.28
2018-02-10T02:54:09.901Z,65.43
2018-02-10T02:55:12.444Z,68.97
2018-02-10T02:56:15.005Z,76.22
2018-02-10T02:57:17.533Z,69.57
2018-02-10T02:58:20.064Z,65.87
2018-02-10T02:59:22.585Z,72.47
2018-02-10T03:00:25.109Z,74.37
2018-02-10T03:01:28.429Z,77.20
2018-02-10T03:02:30.960Z,72.45
2018-02-10T03:03:34.247Z,74.78
2018-02-10T03:04:37.562Z,73.97
2018-02-10T03:05:40.121Z,66.07
2018-02-10T03:06:42.657Z,67.47
2018-02-10T03:07:45.177Z,79.20
2018-02-10T03:08:47.694Z,77.75
2018-02-10T03:09:51.012Z,79.43
2018-02-10T03:10:53.580Z,74.72
2018-02-10T03:11:56.095Z,69.32
2018-02-10T03:12:58.624Z,72.45
2018-02-10T03:14:01.161Z,67.47
2018-02-10T03:15:03.692Z,71.93
2018-02-10T03:16:06.241Z,79.95
2018-02-10T03:17:08.760Z,76.05
2018-02-10T03:18:11.281Z,82.68
2018-02-10T03:19:13.888Z,71.60
2018-02-10T03:20:17.155Z,74.03
2018-02-10T03:21:20.444Z,76.15
2018-02-10T03:22:23.724Z,60.03
2018-02-10T03:23:27.052Z,69.32
2018-02-10T03:24:29.569Z,66.25
2018-02-10T03:25:32.094Z,65.30
2018-02-10T03:26:34.626Z,65.45
2018-02-10T03:28:46.116Z,65.32
2018-02-10T03:29:48.636Z,67.60
2018-02-10T03:30:51.158Z,58.83
2018-02-10T03:31:53.678Z,64.70
2018-02-10T03:32:56.196Z,64.30
2018-02-10T03:33:58.761Z,68.22
2018-02-10T03:35:01.293Z,64.47
2018-02-10T03:36:04.629Z,73.62
2018-02-10T03:37:07.157Z,75.45
2018-02-10T03:38:09.673Z,71.32
2018-02-10T03:39:12.187Z,66.43
2018-02-10T03:40:14.734Z,68.93
2018-02-10T03:41:18.051Z,65.70
2018-02-10T03:42:20.582Z,67.55
2018-02-10T03:43:23.872Z,76.18
2018-02-10T03:44:27.160Z,65.30
2018-02-10T03:45:30.485Z,95.50
2018-02-10T03:46:33.039Z,77.57
2018-02-10T03:47:35.604Z,77.97
2018-02-10T03:48:38.124Z,69.72
2018-02-10T03:49:40.653Z,74.00
2018-02-10T03:50:43.189Z,73.85
2018-02-10T03:51:45.709Z,62.25
2018-02-10T03:52:48.276Z,75.97
2018-02-10T03:53:50.797Z,68.78
2018-02-10T03:54:53.316Z,65.07
2018-02-10T03:55:55.845Z,74.50
2018-02-10T03:56:58.370Z,75.05
2018-02-10T03:58:01.808Z,70.95
2018-02-10T03:59:04.452Z,64.22
2018-02-10T04:00:07.006Z,67.37
2018-02-10T04:01:09.536Z,64.55
2018-02-10T04:02:12.057Z,70.45
2018-02-10T04:03:14.605Z,64.45
2018-02-10T04:04:18.026Z,69.15
2018-02-10T04:05:20.552Z,65.03
2018-02-10T04:06:23.836Z,74.07
2018-02-10T04:07:26.361Z,68.95
2018-02-10T04:08:28.917Z,58.35
2018-02-10T04:09:31.450Z,64.87
2018-02-10T04:10:33.975Z,70.20
2018-02-10T04:11:36.498Z,68.18
2018-02-10T04:12:39.027Z,63.10
2018-02-10T04:13:42.344Z,71.75
2018-02-10T04:14:44.866Z,78.10
2018-02-10T04:15:48.192Z,65.00
2018-02-10T04:16:50.717Z,75.05
2018-02-10T04:17:54.004Z,74.72
2018-02-10T04:18:57.292Z,74.90
2018-02-10T04:20:00.589Z,79.20
2018-02-10T04:21:03.250Z,69.97
2018-02-10T04:22:06.557Z,66.90
2018-02-10T04:23:09.093Z,72.60
2018-02-10T04:24:12.377Z,65.90
2018-02-10T04:25:15.664Z,75.72
2018-02-10T04:26:18.964Z,66.85
2018-02-10T04:27:21.524Z,69.97
2018-02-10T04:28:24.080Z,78.15
2018-02-10T04:29:27.364Z,81.45
2018-02-10T04:30:30.657Z,69.80
2018-02-10T04:31:33.190Z,74.70
2018-02-10T04:32:35.712Z,74.28
2018-02-10T04:33:38.268Z,75.37
2018-02-10T04:34:40.796Z,72.25
2018-02-10T04:35:43.349Z,76.55
2018-02-10T04:36:45.868Z,71.75
2018-02-10T04:37:48.384Z,71.40
2018-02-10T04:38:50.908Z,66.60
2018-02-10T04:39:53.436Z,73.47
2018-02-10T04:40:56.760Z,70.82
2018-02-10T04:41:59.293Z,70.25
2018-02-10T04:43:02.605Z,66.90
2018-02-10T04:44:05.125Z,76.10
2018-02-10T04:45:07.652Z,73.00
2018-02-10T04:46:10.210Z,73.72
2018-02-10T04:47:12.771Z,64.28
2018-02-10T04:48:15.297Z,77.68
2018-02-10T04:49:18.621Z,64.82
2018-02-10T04:50:21.154Z,70.82
2018-02-10T04:51:24.468Z,69.80
2018-02-10T04:52:26.995Z,65.60
2018-02-10T04:53:30.337Z,70.43
2018-02-10T04:54:32.852Z,73.20
2018-02-10T04:55:36.141Z,76.87
2018-02-10T04:56:39.431Z,67.25
2018-02-10T04:57:42.832Z,79.53
2018-02-10T04:58:45.393Z,67.37
2018-02-10T04:59:47.914Z,67.97
2018-02-10T05:00:50.441Z,74.65
2018-02-10T05:01:52.964Z,71.35
2018-02-10T05:02:56.253Z,78.25
2018-02-10T05:03:59.725Z,69.45
2018-02-10T05:05:02.254Z,73.45
2018-02-10T05:06:04.776Z,75.30
2018-02-10T05:07:08.073Z,71.68
2018-02-10T05:08:10.626Z,77.95
2018-02-10T05:09:13.951Z,66.85
2018-02-10T05:10:16.473Z,77.40
2018-02-10T05:11:19.832Z,74.78
2018-02-10T05:12:22.357Z,75.03
2018-02-10T05:13:24.894Z,71.10
2018-02-10T05:14:28.216Z,73.70
2018-02-10T05:15:30.746Z,71.55
2018-02-10T05:16:34.037Z,67.28
2018-02-10T05:17:36.596Z,76.95
2018-02-10T05:18:39.893Z,68.57
2018-02-10T05:19:42.417Z,68.37
2018-02-10T05:20:44.941Z,72.25
2018-02-10T05:21:47.464Z,64.10
2018-02-10T05:22:50.799Z,71.05
2018-02-10T05:23:53.337Z,64.55
2018-02-10T05:24:55.870Z,71.47
2018-02-10T05:25:58.392Z,72.03
2018-02-10T05:27:00.919Z,69.32
2018-02-10T05:28:04.252Z,72.50
2018-02-10T05:29:06.783Z,63.75
2018-02-10T05:30:10.073Z,67.97
2018-02-10T05:31:12.600Z,70.80
2018-02-10T05:32:15.132Z,72.40
2018-02-10T05:33:17.680Z,62.30
2018-02-10T05:34:20.231Z,65.50
2018-02-10T05:35:23.517Z,66.07
2018-02-10T05:36:26.078Z,66.85
2018-02-10T05:37:29.364Z,68.47
2018-02-10T05:38:32.655Z,71.93
2018-02-10T05:39:35.218Z,75.00
2018-02-10T05:40:37.785Z,62.08
2018-02-10T05:41:40.312Z,73.60
2018-02-10T05:42:42.837Z,71.22
2018-02-10T05:43:45.362Z,72.20
2018-02-10T05:44:48.656Z,67.40
2018-02-10T05:45:51.983Z,76.72
2018-02-10T05:46:54.504Z,76.40
2018-02-10T05:47:57.796Z,77.90
2018-02-10T05:49:01.088Z,78.53
2018-02-10T05:50:03.614Z,67.60
2018-02-10T05:51:06.185Z,76.72
2018-02-10T05:52:08.706Z,64.25
2018-02-10T05:53:11.250Z,74.45
2018-02-10T05:54:13.777Z,69.70
2018-02-10T05:55:16.305Z,74.53
2018-02-10T05:56:18.873Z,77.12
2018-02-10T05:57:21.400Z,66.28
2018-02-10T05:58:24.698Z,74.55
2018-02-10T05:59:27.245Z,74.95
2018-02-10T06:00:30.569Z,66.22
2018-02-10T06:01:33.097Z,70.65
2018-02-10T06:02:36.400Z,73.72
2018-02-10T06:03:38.926Z,73.82
2018-02-10T06:04:41.452Z,71.00
2018-02-10T06:05:44.012Z,70.05
2018-02-10T06:06:46.536Z,76.35
2018-02-10T06:07:49.065Z,71.10
2018-02-10T06:08:51.589Z,76.20
2018-02-10T06:09:54.873Z,75.35
2018-02-10T06:10:58.212Z,68.18
2018-02-10T06:12:00.738Z,68.05
2018-02-10T06:13:03.261Z,77.57
2018-02-10T06:14:05.790Z,70.80
2018-02-10T06:15:08.313Z,76.95
2018-02-10T06:16:11.633Z,76.40
2018-02-10T06:17:14.157Z,84.68
2018-02-10T06:18:17.461Z,68.18
2018-02-10T06:19:20.033Z,74.95
2018-02-10T06:20:22.552Z,70.15
2018-02-10T06:21:25.080Z,74.60
2018-02-10T06:22:27.606Z,75.72
2018-02-10T06:23:30.901Z,70.05
2018-02-10T06:24:34.217Z,76.18
2018-02-10T06:25:36.752Z,74.22
2018-02-10T06:26:40.080Z,70.62
2018-02-10T06:27:42.633Z,73.18
2018-02-10T06:28:45.165Z,69.87
2018-02-10T06:29:48.459Z,66.37
2018-02-10T06:30:51.748Z,66.32
2018-02-10T06:31:54.301Z,73.53
2018-02-10T06:32:57.588Z,65.85
2018-02-10T06:34:00.941Z,68.95
2018-02-10T06:35:03.433Z,77.60
2018-02-10T06:36:06.729Z,67.37
2018-02-10T06:37:09.285Z,69.62
2018-02-10T06:38:12.568Z,67.03
2018-02-10T06:39:15.857Z,66.93
2018-02-10T06:40:19.142Z,58.22
2018-02-10T06:41:22.431Z,65.00
2018-02-10T06:42:25.000Z,69.35
2018-02-10T06:43:27.574Z,66.50
2018-02-10T06:44:30.115Z,67.65
2018-02-10T06:45:33.416Z,70.37
2018-02-10T06:46:35.946Z,70.45
2018-02-10T06:47:38.465Z,66.65
2018-02-10T06:48:41.032Z,70.47
2018-02-10T06:49:43.566Z,73.70
2018-02-10T06:50:46.897Z,71.50
2018-02-10T06:51:49.425Z,75.40
2018-02-10T06:52:51.955Z,69.35
2018-02-10T06:53:54.477Z,65.22
2018-02-10T06:54:57.067Z,64.22
2018-02-10T06:55:59.649Z,73.18
2018-02-10T06:57:02.172Z,74.37
2018-02-10T06:58:04.844Z,66.70
2018-02-10T06:59:07.374Z,60.90
2018-02-10T07:00:10.721Z,70.87
2018-02-10T07:01:13.247Z,70.80
2018-02-10T07:02:15.783Z,64.68
2018-02-10T07:03:18.345Z,63.47
2018-02-10T07:04:20.861Z,69.10
2018-02-10T07:05:23.391Z,73.07
2018-02-10T07:06:26.708Z,69.85
2018-02-10T07:07:29.237Z,66.35
2018-02-10T07:08:31.799Z,70.10
2018-02-10T07:09:34.325Z,70.65
2018-02-10T07:10:36.853Z,70.25
2018-02-10T07:11:39.397Z,73.87
2018-02-10T07:12:41.916Z,80.82
2018-02-10T07:13:44.472Z,74.72
2018-02-10T07:14:47.005Z,78.40
2018-02-10T07:15:50.320Z,70.15
2018-02-10T07:16:52.844Z,70.20
2018-02-10T07:17:55.369Z,74.82
2018-02-10T07:18:57.888Z,68.75
2018-02-10T07:20:01.180Z,68.47
2018-02-10T07:21:04.508Z,77.15
2018-02-10T07:22:07.032Z,72.50
2018-02-10T07:23:10.365Z,73.32
2018-02-10T07:24:12.887Z,76.05
2018-02-10T07:25:16.174Z,77.95
2018-02-10T07:26:18.700Z,71.80
2018-02-10T07:27:21.229Z,69.15
2018-02-10T07:28:23.788Z,66.37
2018-02-10T07:29:26.405Z,62.08
2018-02-10T07:30:28.936Z,70.22
2018-02-10T07:31:31.465Z,80.00
2018-02-10T07:32:34.005Z,69.50
2018-02-10T07:33:36.572Z,76.32
2018-02-10T07:34:39.102Z,79.00
2018-02-10T07:35:41.629Z,75.57
2018-02-10T07:36:44.917Z,82.35
2018-02-10T07:37:47.453Z,67.80
2018-02-10T07:38:50.009Z,76.80
2018-02-10T07:39:52.528Z,69.32
2018-02-10T07:40:55.060Z,75.53
2018-02-10T07:41:57.579Z,76.60
2018-02-10T07:43:00.103Z,71.75
2018-02-10T07:44:03.414Z,68.62
2018-02-10T07:45:05.950Z,73.75
2018-02-10T07:46:09.240Z,76.97
2018-02-10T07:47:12.528Z,71.45
2018-02-10T07:48:15.823Z,71.68
2018-02-10T07:49:18.384Z,75.35
2018-02-10T07:50:20.913Z,66.32
2018-02-10T07:51:23.447Z,71.87
2018-02-10T07:52:25.967Z,80.40
2018-02-10T07:53:29.244Z,71.40
2018-02-10T07:54:31.816Z,68.40
2018-02-10T07:55:35.117Z,79.72
2018-02-10T07:56:37.644Z,72.93
2018-02-10T07:57:40.177Z,74.93
2018-02-10T07:58:42.701Z,67.87
2018-02-10T07:59:46.013Z,80.87
2018-02-10T08:00:48.535Z,72.55
2018-02-10T08:01:51.057Z,75.82
2018-02-10T08:02:53.592Z,76.00
2018-02-10T08:03:56.164Z,79.00
2018-02-10T08:04:58.683Z,74.32
2018-02-10T08:06:01.202Z,68.12
2018-02-10T08:07:03.722Z,68.00
2018-02-10T08:08:06.240Z,69.95
2018-02-10T08:09:08.792Z,76.97
2018-02-10T08:10:11.314Z,70.82
2018-02-10T08:11:13.823Z,78.78
2018-02-10T08:12:16.340Z,69.87
2018-02-10T08:13:18.893Z,67.87
2018-02-10T08:14:21.444Z,85.62
2018-02-10T08:15:23.966Z,71.82
2018-02-10T08:16:27.250Z,73.28
2018-02-10T08:17:30.530Z,70.57
2018-02-10T08:18:33.053Z,73.40
2018-02-10T08:19:35.644Z,67.15
2018-02-10T08:20:38.213Z,66.07
2018-02-10T08:21:40.733Z,76.15
2018-02-10T08:22:43.248Z,65.68
2018-02-10T08:23:45.778Z,81.75
2018-02-10T08:24:48.296Z,77.07
2018-02-10T08:25:51.612Z,79.68
2018-02-10T08:26:54.175Z,76.90
2018-02-10T08:27:56.701Z,79.93
2018-02-10T08:28:59.224Z,73.43
2018-02-10T08:30:01.736Z,82.15
2018-02-10T08:31:04.253Z,72.87
2018-02-10T08:32:06.813Z,72.68
2018-02-10T08:33:09.364Z,71.95
2018-02-10T08:34:11.888Z,72.37
2018-02-10T08:35:14.400Z,68.57
2018-02-10T08:36:16.918Z,72.93
2018-02-10T08:37:19.454Z,70.62
2018-02-10T08:38:22.016Z,74.40
2018-02-10T08:39:24.540Z,69.57
2018-02-10T08:40:27.820Z,69.10
2018-02-10T08:41:31.141Z,68.90
2018-02-10T08:42:33.666Z,75.97
2018-02-10T08:43:36.364Z,70.35
2018-02-10T08:44:38.880Z,68.50
2018-02-10T08:45:41.404Z,66.35
2018-02-10T08:46:43.969Z,67.07
2018-02-10T08:47:46.508Z,68.20
2018-02-10T08:48:49.799Z,68.35
2018-02-10T08:49:53.086Z,69.03
2018-02-10T08:50:56.380Z,75.72
2018-02-10T08:51:58.940Z,71.55
2018-02-10T08:53:02.224Z,66.82
2018-02-10T08:54:05.505Z,73.25
2018-02-10T08:55:08.828Z,72.18
2018-02-10T08:56:11.417Z,68.20
2018-02-10T08:57:13.973Z,78.07
2018-02-10T08:58:16.526Z,68.95
2018-02-10T08:59:19.052Z,79.65
2018-02-10T09:00:22.334Z,81.82
2018-02-10T09:01:25.636Z,75.70
2018-02-10T09:02:28.194Z,77.25
2018-02-10T09:03:30.726Z,72.15
2018-02-10T09:04:33.293Z,77.12
2018-02-10T09:05:35.821Z,79.07
2018-02-10T09:06:38.345Z,66.60
2018-02-10T09:07:41.632Z,72.55
2018-02-10T09:08:44.918Z,83.78
2018-02-10T09:09:48.254Z,77.10
2018-02-10T09:10:50.773Z,74.57
2018-02-10T09:11:54.057Z,69.45
2018-02-10T09:12:57.387Z,72.05
2018-02-10T09:13:59.948Z,75.43
2018-02-10T09:15:02.468Z,74.53
2018-02-10T09:16:05.761Z,72.68
2018-02-10T09:17:09.044Z,67.70
2018-02-10T09:18:11.614Z,74.30
2018-02-10T09:19:14.173Z,69.90
2018-02-10T09:20:21.559Z,76.37
2018-02-10T09:21:24.044Z,77.07
2018-02-10T09:22:26.561Z,79.05
2018-02-10T09:23:29.094Z,75.93
2018-02-10T09:24:31.649Z,77.50
2018-02-10T09:25:34.214Z,66.45
2018-02-10T09:26:36.784Z,77.40
2018-02-10T09:27:39.311Z,64.43
2018-02-10T09:28:42.599Z,70.43
2018-02-10T09:29:45.893Z,67.78
2018-02-10T09:30:48.408Z,68.55
2018-02-10T09:31:50.980Z,69.25
2018-02-10T09:32:53.505Z,72.53
2018-02-10T09:33:56.027Z,82.97
2018-02-10T09:34:58.557Z,73.43
2018-02-10T09:36:01.074Z,70.65
2018-02-10T09:37:04.413Z,67.60
2018-02-10T09:38:07.717Z,72.37
2018-02-10T09:39:10.237Z,69.22
2018-02-10T09:40:12.753Z,65.05
2018-02-10T09:41:15.273Z,62.70
2018-02-10T09:42:17.833Z,70.20
2018-02-10T09:43:20.406Z,68.87
2018-02-10T09:44:22.935Z,66.22
2018-02-10T09:45:26.235Z,65.10
2018-02-10T09:46:28.798Z,73.45
2018-02-10T09:47:32.089Z,70.37
2018-02-10T09:48:34.622Z,74.60
2018-02-10T09:49:37.153Z,77.75
2018-02-10T09:50:39.676Z,79.30
2018-02-10T09:51:42.992Z,83.65
2018-02-10T09:52:45.513Z,76.40
2018-02-10T09:53:48.799Z,70.12
2018-02-10T09:54:52.119Z,74.10
2018-02-10T09:55:54.669Z,71.28
2018-02-10T09:56:57.185Z,67.07
2018-02-10T09:57:59.702Z,74.75
2018-02-10T09:59:02.265Z,77.07
2018-02-10T10:00:04.797Z,74.10
2018-02-10T10:01:07.321Z,85.12
2018-02-10T10:02:09.841Z,79.53
2018-02-10T10:03:13.165Z,83.32
2018-02-10T10:04:16.443Z,87.00
2018-02-10T10:05:19.001Z,76.07
2018-02-10T10:06:21.528Z,76.93
2018-02-10T10:07:24.045Z,79.85
2018-02-10T10:08:31.249Z,71.78
2018-02-10T10:09:33.769Z,73.57
2018-02-10T10:10:37.085Z,81.50
2018-02-10T10:11:39.624Z,79.62
2018-02-10T10:12:42.145Z,79.75
2018-02-10T10:13:44.709Z,76.40
2018-02-10T10:14:47.237Z,75.72
2018-02-10T10:15:49.756Z,75.68
2018-02-10T10:16:52.272Z,77.28
2018-02-10T10:17:54.796Z,72.75
2018-02-10T10:18:58.132Z,79.72
2018-02-10T10:20:00.661Z,74.72
2018-02-10T10:21:03.201Z,76.03
2018-02-10T10:22:05.721Z,71.22
2018-02-10T10:23:08.244Z,63.35
2018-02-10T10:24:11.589Z,73.97
2018-02-10T10:25:14.105Z,72.15
2018-02-10T10:26:17.401Z,72.45
2018-02-10T10:27:19.931Z,66.43
2018-02-10T10:28:22.456Z,66.03
2018-02-10T10:29:25.007Z,71.00
2018-02-10T10:30:27.531Z,67.45
2018-02-10T10:31:30.087Z,63.25
2018-02-10T10:32:32.612Z,63.05
2018-02-10T10:33:35.142Z,64.10
2018-02-10T10:34:38.427Z,60.70
2018-02-10T10:35:41.734Z,58.13
2018-02-10T10:36:44.289Z,62.75
2018-02-10T10:37:47.569Z,69.90
2018-02-10T10:38:50.857Z,60.47
2018-02-10T10:39:54.143Z,65.15
2018-02-10T10:40:57.421Z,63.40
2018-02-10T10:42:00.736Z,63.33
2018-02-10T10:43:03.260Z,61.20
2018-02-10T10:44:05.808Z,59.53
2018-02-10T10:45:08.324Z,59.10
2018-02-10T10:46:10.845Z,65.80
2018-02-10T10:47:13.367Z,60.85
2018-02-10T10:48:15.937Z,57.35
2018-02-10T10:49:18.486Z,55.97
2018-02-10T10:50:21.041Z,59.25
2018-02-10T10:51:24.316Z,58.90
2018-02-10T10:52:27.610Z,62.55
2018-02-10T10:53:30.144Z,61.55
2018-02-10T10:54:32.700Z,56.78
2018-02-10T10:55:35.217Z,57.13
2018-02-10T10:56:37.764Z,61.80
2018-02-10T10:57:41.071Z,63.63
2018-02-10T10:58:43.592Z,62.55
2018-02-10T10:59:46.180Z,56.45
2018-02-10T11:00:49.468Z,59.75
2018-02-10T11:01:52.769Z,68.03
2018-02-10T11:02:55.284Z,66.18
2018-02-10T11:03:57.804Z,64.57
2018-02-10T11:05:00.373Z,70.55
2018-02-10T11:06:02.893Z,55.80
2018-02-10T11:07:05.416Z,62.45
2018-02-10T11:08:07.940Z,62.97
2018-02-10T11:09:11.232Z,66.12
2018-02-10T11:10:14.566Z,61.03
2018-02-10T11:11:17.084Z,54.90
2018-02-10T11:12:20.377Z,65.32
2018-02-10T11:13:22.910Z,54.55
2018-02-10T11:14:25.472Z,59.72
2018-02-10T11:15:27.985Z,55.42
2018-02-10T11:16:30.550Z,48.40
2018-02-10T11:17:33.072Z,59.38
2018-02-10T11:18:35.588Z,56.35
2018-02-10T11:19:38.113Z,65.78
2018-02-10T11:20:41.406Z,65.75
2018-02-10T11:21:44.733Z,55.33
2018-02-10T11:22:47.253Z,59.38
2018-02-10T11:23:50.560Z,58.28
2018-02-10T11:24:53.085Z,67.47
2018-02-10T11:25:55.648Z,66.65
2018-02-10T11:26:58.165Z,63.35
2018-02-10T11:28:00.697Z,68.25
2018-02-10T11:29:03.992Z,63.22
2018-02-10T11:30:07.281Z,68.28
2018-02-10T11:31:09.884Z,65.87
2018-02-10T11:32:12.433Z,71.10
2018-02-10T11:33:14.964Z,65.90
2018-02-10T11:34:17.495Z,67.43
2018-02-10T11:35:20.056Z,76.85
2018-02-10T11:36:22.573Z,68.22
2018-02-10T11:37:25.132Z,72.70
2018-02-10T11:38:28.456Z,66.00
2018-02-10T11:39:30.982Z,74.30
2018-02-10T11:40:34.318Z,80.30
2018-02-10T11:41:36.886Z,74.62
2018-02-10T11:42:39.407Z,75.47
2018-02-10T11:43:42.710Z,78.80
2018-02-10T11:44:45.264Z,86.45
2018-02-10T11:45:47.793Z,77.10
2018-02-10T11:46:50.370Z,71.45
2018-02-10T11:47:52.981Z,69.18
2018-02-10T11:48:55.505Z,72.25
2018-02-10T11:49:58.030Z,63.30
2018-02-10T11:51:00.628Z,68.07
2018-02-10T11:52:03.196Z,68.90
2018-02-10T11:53:05.716Z,75.25
2018-02-10T11:54:08.232Z,67.18
2018-02-10T11:55:10.754Z,69.00
2018-02-10T11:56:13.269Z,68.70
2018-02-10T11:57:15.840Z,64.75
2018-02-10T11:58:18.364Z,74.12
2018-02-10T11:59:20.876Z,69.55
2018-02-10T12:00:24.198Z,68.30
2018-02-10T12:01:26.745Z,67.40
2018-02-10T12:02:30.061Z,73.10
2018-02-10T12:03:32.578Z,78.18
2018-02-10T12:04:35.866Z,67.22
2018-02-10T12:05:39.188Z,62.67
2018-02-10T12:06:41.708Z,67.90
2018-02-10T12:07:44.232Z,67.75
2018-02-10T12:08:46.794Z,64.55
2018-02-10T12:09:49.316Z,65.18
2018-02-10T12:10:52.640Z,59.13
2018-02-10T12:11:55.169Z,71.28
2018-02-10T12:12:58.460Z,63.55
2018-02-10T12:14:01.779Z,68.37
2018-02-10T12:15:04.302Z,64.10
2018-02-10T12:16:07.588Z,60.38
2018-02-10T12:17:10.880Z,62.65
2018-02-10T12:19:22.390Z,65.78
2018-02-10T12:20:24.904Z,66.22
2018-02-10T12:21:27.432Z,59.97
2018-02-10T12:22:29.957Z,65.78
2018-02-10T12:23:33.286Z,61.15
2018-02-10T12:24:35.808Z,65.20
2018-02-10T12:25:38.337Z,63.55
2018-02-10T12:26:40.865Z,58.30
2018-02-10T12:27:43.385Z,60.05
2018-02-10T12:28:46.764Z,62.72
2018-02-10T12:29:49.285Z,58.72
2018-02-10T12:30:51.805Z,50.12
2018-02-10T12:31:54.325Z,60.28
2018-02-10T12:32:56.836Z,61.30
2018-02-10T12:34:00.168Z,53.38
2018-02-10T12:35:02.689Z,66.50
2018-02-10T12:36:05.973Z,61.35
2018-02-10T12:37:09.260Z,60.17
2018-02-10T12:38:12.543Z,64.53
2018-02-10T12:39:15.861Z,57.80
2018-02-10T12:40:18.385Z,57.97
2018-02-10T12:41:20.956Z,61.78
2018-02-10T12:42:24.249Z,53.10
2018-02-10T12:43:27.529Z,54.40
2018-02-10T12:44:30.811Z,58.13
2018-02-10T12:45:34.096Z,60.63
2018-02-10T12:46:37.421Z,58.78
2018-02-10T12:47:56.588Z,60.95
2018-02-10T12:50:34.336Z,53.17
2018-02-10T12:51:37.628Z,60.03
2018-02-10T12:52:40.909Z,52.20
2018-02-10T12:53:44.200Z,52.65
2018-02-10T12:54:46.764Z,55.83
2018-02-10T12:55:49.296Z,49.60
2018-02-10T12:56:51.817Z,50.63
2018-02-10T12:57:54.328Z,59.47
2018-02-10T12:58:56.851Z,54.38
2018-02-10T12:59:59.397Z,53.25
2018-02-10T13:01:01.920Z,48.45
2018-02-10T13:02:04.445Z,53.53
2018-02-10T13:03:07.027Z,55.33
2018-02-10T13:04:09.547Z,55.30
2018-02-10T13:05:12.829Z,54.47
2018-02-10T13:06:16.105Z,50.55
2018-02-10T13:07:18.620Z,55.33
2018-02-10T13:08:21.184Z,72.93
2018-02-10T13:09:23.702Z,57.17
2018-02-10T13:10:26.995Z,53.83
2018-02-10T13:11:30.293Z,53.38
2018-02-10T13:12:32.810Z,51.80
2018-02-10T13:13:35.387Z,51.30
2018-02-10T13:14:37.905Z,58.92
2018-02-10T13:15:40.452Z,54.70
2018-02-10T13:16:43.733Z,50.33
2018-02-10T13:17:47.016Z,53.70
2018-02-10T13:18:50.338Z,57.75
2018-02-10T13:19:52.879Z,60.15
2018-02-10T13:20:55.401Z,47.20
2018-02-10T13:21:57.924Z,54.40
2018-02-10T13:23:00.486Z,49.85
2018-02-10T13:24:02.999Z,54.78
2018-02-10T13:25:05.560Z,55.80
2018-02-10T13:26:08.132Z,55.35
2018-02-10T13:27:10.658Z,57.17
2018-02-10T13:28:13.180Z,57.95
2018-02-10T13:29:15.697Z,62.25
2018-02-10T13:30:18.218Z,58.92
2018-02-10T13:31:21.531Z,51.80
2018-02-10T13:32:24.081Z,53.45